createdAt,value
2022-07-31T00:01:00.612Z,100511.27
2022-07-31T00:03:29.075Z,100507.78
2022-07-31T00:05:57.387Z,100510.51
2022-07-31T00:08:26.389Z,100507.59
2022-07-31T00:10:54.943Z,100508.17
2022-07-31T00:13:56.627Z,100508.42
2022-07-31T00:16:12.556Z,100503.95
2022-07-31T00:18:40.767Z,100500.92
2022-07-31T00:21:09.019Z,100501.27
2022-07-31T00:23:37.699Z,100500.56
2022-07-31T00:26:06.035Z,100497.39
2022-07-31T00:28:34.484Z,100498.77
2022-07-31T00:31:03.966Z,100498.75
2022-07-31T00:33:32.308Z,100497.42
2022-07-31T00:36:00.524Z,100493.40
2022-07-31T00:38:28.860Z,100491.61
2022-07-31T00:40:58.011Z,100489.23
2022-07-31T00:43:27.443Z,100487.02
2022-07-31T00:45:59.658Z,100488.39
2022-07-31T00:48:28.151Z,100484.26
2022-07-31T00:50:56.809Z,100483.71
2022-07-31T00:53:25.476Z,100478.91
2022-07-31T00:55:53.813Z,100477.40
2022-07-31T00:58:22.051Z,100471.94
2022-07-31T01:00:51.671Z,100470.88
2022-07-31T01:03:20.606Z,100465.94
2022-07-31T01:05:48.816Z,100464.02
2022-07-31T01:08:17.463Z,100465.12
2022-07-31T01:11:02.198Z,100461.80
2022-07-31T01:13:45.967Z,100462.92
2022-07-31T01:16:15.579Z,100462.00
2022-07-31T01:18:44.602Z,100460.73
2022-07-31T01:21:20.983Z,100463.52
2022-07-31T01:24:12.363Z,100464.15
2022-07-31T01:27:01.972Z,100465.77
2022-07-31T01:29:40.215Z,100465.02
2022-07-31T01:32:15.060Z,100465.20
2022-07-31T01:34:57.581Z,100463.59
2022-07-31T01:37:45.203Z,100460.48
2022-07-31T01:40:23.029Z,100462.17
2022-07-31T01:42:58.459Z,100465.77
2022-07-31T01:45:29.203Z,100466.25
2022-07-31T01:48:01.533Z,100466.01
2022-07-31T01:50:42.934Z,100463.36
2022-07-31T01:53:20.419Z,100458.98
2022-07-31T01:56:02.901Z,100458.42
2022-07-31T01:58:40.034Z,100458.84
2022-07-31T02:01:45.341Z,100454.16
2022-07-31T02:04:16.605Z,100454.52
2022-07-31T02:06:47.750Z,100448.04
2022-07-31T02:09:19.430Z,100453.39
2022-07-31T02:11:54.764Z,100453.50
2022-07-31T02:14:25.748Z,100456.29
2022-07-31T02:16:55.592Z,100453.96
2022-07-31T02:19:29.575Z,100452.11
2022-07-31T02:22:00.743Z,100446.54
2022-07-31T02:24:30.402Z,100440.73
2022-07-31T02:26:59.129Z,100439.92
2022-07-31T02:29:32.642Z,100435.03
2022-07-31T02:32:03.595Z,100433.73
2022-07-31T02:34:35.824Z,100431.41
2022-07-31T02:37:05.224Z,100431.00
2022-07-31T02:39:35.527Z,100428.34
2022-07-31T02:42:05.477Z,100426.15
2022-07-31T02:44:35.059Z,100424.13
2022-07-31T02:47:05.576Z,100427.11
2022-07-31T02:49:34.982Z,100420.40
2022-07-31T02:52:07.454Z,100415.45
2022-07-31T02:54:40.899Z,100417.23
2022-07-31T02:57:09.498Z,100409.59
2022-07-31T02:59:38.665Z,100416.95
2022-07-31T03:02:07.492Z,100412.70
2022-07-31T03:04:42.477Z,100411.16
2022-07-31T03:07:11.445Z,100408.54
2022-07-31T03:09:39.738Z,100405.38
2022-07-31T03:12:26.792Z,100407.41
2022-07-31T03:14:56.922Z,100407.14
2022-07-31T03:17:25.223Z,100405.36
2022-07-31T03:20:08.224Z,100401.64
2022-07-31T03:22:37.338Z,100408.36
2022-07-31T03:25:06.453Z,100410.96
2022-07-31T03:27:35.152Z,100409.77
2022-07-31T03:30:05.103Z,100406.51
2022-07-31T03:32:35.758Z,100407.58
2022-07-31T03:35:04.679Z,100409.12
2022-07-31T03:37:33.293Z,100406.62
2022-07-31T03:40:01.555Z,100409.39
2022-07-31T03:42:30.201Z,100405.02
2022-07-31T03:44:59.268Z,100406.94
2022-07-31T03:47:27.595Z,100406.49
2022-07-31T03:49:56.138Z,100401.16
2022-07-31T03:52:24.602Z,100406.42
2022-07-31T03:54:53.266Z,100402.45
2022-07-31T03:57:26.144Z,100399.08
2022-07-31T03:59:58.373Z,100398.98
2022-07-31T04:02:29.516Z,100400.79
2022-07-31T04:05:10.493Z,100396.99
2022-07-31T04:07:41.362Z,100397.15
2022-07-31T04:10:10.201Z,100397.89
2022-07-31T04:12:38.520Z,100397.72
2022-07-31T04:15:07.513Z,100396.80
2022-07-31T04:17:37.217Z,100396.44
2022-07-31T04:20:08.891Z,100397.48
2022-07-31T04:22:38.021Z,100396.90
2022-07-31T04:25:13.935Z,100399.80
2022-07-31T04:27:54.790Z,100401.81
2022-07-31T04:30:23.284Z,100402.29
2022-07-31T04:32:51.561Z,100399.26
2022-07-31T04:35:23.896Z,100400.15
2022-07-31T04:37:52.311Z,100399.70
2022-07-31T04:40:26.464Z,100399.05
2022-07-31T04:42:55.408Z,100399.16
2022-07-31T04:45:23.629Z,100399.96
2022-07-31T04:47:52.227Z,100398.48
2022-07-31T04:50:21.247Z,100401.66
2022-07-31T04:53:02.385Z,100402.10
2022-07-31T04:55:35.818Z,100402.52
2022-07-31T04:58:03.999Z,100404.08
2022-07-31T05:00:32.383Z,100403.81
2022-07-31T05:03:01.035Z,100400.52
2022-07-31T05:05:29.790Z,100405.69
2022-07-31T05:07:57.974Z,100404.64
2022-07-31T05:10:53.053Z,100402.55
2022-07-31T05:13:21.744Z,100400.84
2022-07-31T05:15:50.305Z,100403.34
2022-07-31T05:18:19.153Z,100394.18
2022-07-31T05:21:20.661Z,100396.34
2022-07-31T05:24:07.412Z,100398.47
2022-07-31T05:26:59.169Z,100399.35
2022-07-31T05:29:27.526Z,100398.66
2022-07-31T05:32:09.674Z,100400.60
2022-07-31T05:34:38.944Z,100402.52
2022-07-31T05:37:07.224Z,100400.20
2022-07-31T05:39:37.748Z,100404.23
2022-07-31T05:42:25.187Z,100404.71
2022-07-31T05:45:12.420Z,100407.16
2022-07-31T05:47:41.274Z,100406.13
2022-07-31T05:50:12.223Z,100411.01
2022-07-31T05:52:40.648Z,100408.73
2022-07-31T05:55:43.811Z,100412.14
2022-07-31T05:58:34.141Z,100409.21
2022-07-31T06:01:03.008Z,100408.39
2022-07-31T06:03:51.532Z,100412.27
2022-07-31T06:06:42.633Z,100408.25
2022-07-31T06:09:10.835Z,100412.21
2022-07-31T06:11:42.827Z,100414.15
2022-07-31T06:14:11.290Z,100415.16
2022-07-31T06:17:05.808Z,100410.73
2022-07-31T06:19:35.694Z,100408.89
2022-07-31T06:22:04.798Z,100406.56
2022-07-31T06:24:33.531Z,100404.70
2022-07-31T06:27:03.671Z,100411.33
2022-07-31T06:29:42.163Z,100411.20
2022-07-31T06:32:12.120Z,100412.12
2022-07-31T06:34:41.942Z,100414.52
2022-07-31T06:37:11.502Z,100414.16
2022-07-31T06:39:54.812Z,100419.52
2022-07-31T06:42:45.306Z,100418.20
2022-07-31T06:45:51.421Z,100417.44
2022-07-31T06:48:38.902Z,100412.27
2022-07-31T06:51:30.241Z,100415.20
2022-07-31T06:54:00.773Z,100415.94
2022-07-31T06:56:30.730Z,100417.56
2022-07-31T06:58:59.931Z,100413.34
2022-07-31T07:01:29.081Z,100408.30
2022-07-31T07:03:57.947Z,100410.31
2022-07-31T07:06:27.449Z,100406.23
2022-07-31T07:08:56.343Z,100409.11
2022-07-31T07:11:25.064Z,100404.63
2022-07-31T07:13:53.390Z,100404.38
2022-07-31T07:16:21.990Z,100401.16
2022-07-31T07:18:50.841Z,100405.95
2022-07-31T07:21:19.384Z,100404.70
2022-07-31T07:23:48.253Z,100402.84
2022-07-31T07:26:20.698Z,100398.52
2022-07-31T07:28:50.100Z,100395.84
2022-07-31T07:31:19.794Z,100393.98
2022-07-31T07:33:49.329Z,100393.42
2022-07-31T07:36:24.732Z,100389.61
2022-07-31T07:39:11.049Z,100393.13
2022-07-31T07:41:39.647Z,100388.71
2022-07-31T07:44:08.102Z,100387.40
2022-07-31T07:46:36.480Z,100387.84
2022-07-31T07:49:06.852Z,100388.92
2022-07-31T07:51:59.633Z,100385.61
2022-07-31T07:54:37.920Z,100385.03
2022-07-31T07:57:20.811Z,100392.11
2022-07-31T08:00:11.015Z,100384.78
2022-07-31T08:03:47.439Z,100384.96
2022-07-31T08:05:39.347Z,100388.10
2022-07-31T08:08:08.160Z,100387.30
2022-07-31T08:11:01.339Z,100387.91
2022-07-31T08:13:40.964Z,100388.58
2022-07-31T08:16:28.219Z,100388.02
2022-07-31T08:18:59.368Z,100391.92
2022-07-31T08:21:29.091Z,100394.66
2022-07-31T08:23:57.817Z,100391.38
2022-07-31T08:26:27.369Z,100392.70
2022-07-31T08:28:57.022Z,100391.30
2022-07-31T08:31:27.780Z,100390.92
2022-07-31T08:34:30.793Z,100389.82
2022-07-31T08:38:02.641Z,100387.80
2022-07-31T08:39:52.608Z,100389.17
2022-07-31T08:42:21.398Z,100392.50
2022-07-31T08:44:49.788Z,100391.33
2022-07-31T08:47:22.578Z,100389.33
2022-07-31T08:49:52.721Z,100392.89
2022-07-31T08:52:25.868Z,100395.20
2022-07-31T08:55:07.937Z,100396.23
2022-07-31T08:57:37.470Z,100397.26
2022-07-31T09:00:13.185Z,100398.59
2022-07-31T09:02:42.013Z,100402.60
2022-07-31T09:05:41.824Z,100398.62
2022-07-31T09:08:14.636Z,100404.94
2022-07-31T09:10:49.645Z,100405.48
2022-07-31T09:13:19.429Z,100407.11
2022-07-31T09:15:51.157Z,100409.38
2022-07-31T09:18:25.543Z,100408.78
2022-07-31T09:21:07.372Z,100410.47
2022-07-31T09:23:46.656Z,100404.20
2022-07-31T09:26:15.628Z,100410.02
2022-07-31T09:28:53.539Z,100408.98
2022-07-31T09:31:22.290Z,100408.05
2022-07-31T09:34:02.428Z,100411.23
2022-07-31T09:36:42.786Z,100410.41
2022-07-31T09:39:30.182Z,100407.52
2022-07-31T09:42:20.153Z,100407.39
2022-07-31T09:45:23.466Z,100409.64
2022-07-31T09:48:14.369Z,100408.67
2022-07-31T09:51:03.294Z,100407.48
2022-07-31T09:53:47.533Z,100407.52
2022-07-31T09:56:36.328Z,100404.27
2022-07-31T09:59:06.908Z,100406.20
2022-07-31T10:01:36.654Z,100404.81
2022-07-31T10:04:07.078Z,100404.66
2022-07-31T10:06:36.653Z,100400.76
2022-07-31T10:09:06.876Z,100402.17
2022-07-31T10:12:17.676Z,100400.21
2022-07-31T10:14:48.992Z,100398.73
2022-07-31T10:17:35.870Z,100397.05
2022-07-31T10:20:26.589Z,100393.27
2022-07-31T10:23:33.504Z,100389.52
2022-07-31T10:26:04.584Z,100389.09
2022-07-31T10:28:36.661Z,100386.35
2022-07-31T10:31:06.298Z,100384.48
2022-07-31T10:33:44.753Z,100383.92
2022-07-31T10:36:46.925Z,100387.92
2022-07-31T10:39:43.932Z,100392.91
2022-07-31T10:42:48.208Z,100386.02
2022-07-31T10:45:17.541Z,100385.80
2022-07-31T10:48:12.285Z,100385.90
2022-07-31T10:51:03.856Z,100388.13
2022-07-31T10:53:58.866Z,100382.52
2022-07-31T10:57:04.730Z,100377.98
2022-07-31T10:59:44.998Z,100378.94
2022-07-31T11:02:37.516Z,100376.98
2022-07-31T11:05:24.002Z,100378.15
2022-07-31T11:08:15.381Z,100372.86
2022-07-31T11:10:57.307Z,100374.86
2022-07-31T11:13:45.702Z,100375.39
2022-07-31T11:16:34.929Z,100377.02
2022-07-31T11:19:41.040Z,100376.70
2022-07-31T11:22:31.682Z,100377.14
2022-07-31T11:25:01.777Z,100378.01
2022-07-31T11:27:34.360Z,100374.23
2022-07-31T11:30:12.441Z,100380.80
2022-07-31T11:32:48.234Z,100378.40
2022-07-31T11:35:30.944Z,100378.02
2022-07-31T11:37:59.965Z,100376.92
2022-07-31T11:40:28.783Z,100379.48
2022-07-31T11:45:52.725Z,100372.14
2022-07-31T11:48:22.460Z,100371.23
2022-07-31T11:50:51.544Z,100373.64
2022-07-31T11:53:21.413Z,100371.72
2022-07-31T11:55:51.435Z,100374.85
2022-07-31T11:58:21.880Z,100377.77
2022-07-31T12:00:59.495Z,100372.52
2022-07-31T12:03:35.041Z,100366.77
2022-07-31T12:06:05.441Z,100363.33
2022-07-31T12:08:35.516Z,100362.02
2022-07-31T12:11:07.921Z,100361.78
2022-07-31T12:13:36.245Z,100362.11
2022-07-31T12:16:09.631Z,100363.59
2022-07-31T12:18:52.490Z,100357.41
2022-07-31T12:21:21.482Z,100354.61
2022-07-31T12:23:52.472Z,100354.61
2022-07-31T12:26:27.233Z,100358.05
2022-07-31T12:29:04.513Z,100358.95
2022-07-31T12:31:45.665Z,100357.23
2022-07-31T12:34:29.867Z,100361.02
2022-07-31T12:37:04.307Z,100358.79
2022-07-31T12:39:53.961Z,100361.86
2022-07-31T12:42:30.622Z,100359.36
2022-07-31T12:45:18.145Z,100362.64
2022-07-31T12:47:54.365Z,100359.95
2022-07-31T12:50:24.145Z,100363.27
2022-07-31T12:52:53.735Z,100363.54
2022-07-31T12:55:22.738Z,100363.40
2022-07-31T12:57:52.235Z,100367.41
2022-07-31T13:00:23.614Z,100367.75
2022-07-31T13:02:53.312Z,100370.46
2022-07-31T13:05:22.886Z,100365.82
2022-07-31T13:07:52.623Z,100365.14
2022-07-31T13:10:24.659Z,100365.68
2022-07-31T13:12:53.548Z,100364.96
2022-07-31T13:15:30.044Z,100365.88
2022-07-31T13:18:02.119Z,100369.39
2022-07-31T13:20:31.344Z,100369.73
2022-07-31T13:22:59.837Z,100369.39
2022-07-31T13:25:32.778Z,100364.51
2022-07-31T13:28:01.345Z,100367.83
2022-07-31T13:30:29.517Z,100366.03
2022-07-31T13:32:57.873Z,100362.52
2022-07-31T13:35:28.242Z,100353.69
2022-07-31T13:37:57.754Z,100355.42
2022-07-31T13:40:45.420Z,100351.27
2022-07-31T13:43:13.987Z,100354.37
2022-07-31T13:45:42.308Z,100355.23
2022-07-31T13:48:10.849Z,100351.57
2022-07-31T13:50:41.979Z,100350.52
2022-07-31T13:53:10.491Z,100349.34
2022-07-31T13:55:39.176Z,100349.00
2022-07-31T13:58:08.618Z,100349.89
2022-07-31T14:00:37.306Z,100348.42
2022-07-31T14:03:05.615Z,100349.52
2022-07-31T14:05:40.199Z,100352.68
2022-07-31T14:08:32.613Z,100349.67
2022-07-31T14:10:58.186Z,100350.78
2022-07-31T14:13:27.177Z,100349.53
2022-07-31T14:15:55.440Z,100352.54
2022-07-31T14:18:24.198Z,100350.70
2022-07-31T14:20:52.688Z,100346.11
2022-07-31T14:23:27.805Z,100343.97
2022-07-31T14:26:05.263Z,100338.08
2022-07-31T14:28:33.638Z,100334.84
2022-07-31T14:31:01.908Z,100334.46
2022-07-31T14:33:30.286Z,100330.70
2022-07-31T14:35:58.539Z,100331.52
2022-07-31T14:38:27.395Z,100328.88
2022-07-31T14:40:56.531Z,100325.68
2022-07-31T14:43:24.985Z,100328.66
2022-07-31T14:45:53.176Z,100330.53
2022-07-31T14:48:22.205Z,100328.34
2022-07-31T14:50:50.418Z,100328.20
2022-07-31T14:53:18.668Z,100329.42
2022-07-31T14:55:47.408Z,100321.17
2022-07-31T14:58:15.942Z,100316.71
2022-07-31T15:00:44.567Z,100320.09
2022-07-31T15:03:12.951Z,100321.61
2022-07-31T15:06:39.591Z,100321.13
2022-07-31T15:08:30.338Z,100318.64
2022-07-31T15:10:58.769Z,100320.08
2022-07-31T15:13:27.251Z,100321.52
2022-07-31T15:15:55.477Z,100324.79
2022-07-31T15:18:25.722Z,100326.94
2022-07-31T15:20:54.736Z,100320.64
2022-07-31T15:23:23.064Z,100318.34
2022-07-31T15:25:51.702Z,100321.23
2022-07-31T15:28:20.104Z,100317.83
2022-07-31T15:30:48.719Z,100315.98
2022-07-31T15:33:17.083Z,100314.91
2022-07-31T15:35:47.792Z,100313.64
2022-07-31T15:38:16.217Z,100313.52
2022-07-31T15:40:47.162Z,100313.04
2022-07-31T15:43:18.916Z,100307.41
2022-07-31T15:45:47.162Z,100310.92
2022-07-31T15:48:15.739Z,100308.89
2022-07-31T15:50:44.096Z,100304.48
2022-07-31T15:53:12.411Z,100303.44
2022-07-31T15:55:40.822Z,100302.09
2022-07-31T15:58:09.124Z,100304.48
2022-07-31T16:00:37.446Z,100301.40
2022-07-31T16:03:06.287Z,100302.91
2022-07-31T16:05:38.761Z,100302.45
2022-07-31T16:08:30.190Z,100300.83
2022-07-31T16:10:57.365Z,100297.79
2022-07-31T16:13:25.639Z,100297.70
2022-07-31T16:15:54.141Z,100297.26
2022-07-31T16:18:22.613Z,100297.29
2022-07-31T16:20:50.973Z,100295.54
2022-07-31T16:23:19.243Z,100292.60
2022-07-31T16:25:47.650Z,100290.06
2022-07-31T16:28:16.647Z,100288.56
2022-07-31T16:30:45.962Z,100285.40
2022-07-31T16:33:14.599Z,100284.99
2022-07-31T16:35:43.078Z,100287.33
2022-07-31T16:38:11.325Z,100284.97
2022-07-31T16:40:39.602Z,100279.95
2022-07-31T16:43:49.625Z,100282.46
2022-07-31T16:45:56.822Z,100281.82
2022-07-31T16:48:25.520Z,100278.63
2022-07-31T16:50:55.108Z,100278.81
2022-07-31T16:54:11.673Z,100273.86
2022-07-31T16:56:15.083Z,100272.41
2022-07-31T16:58:44.422Z,100271.91
2022-07-31T17:01:53.753Z,100276.91
2022-07-31T17:04:04.008Z,100272.98
2022-07-31T17:06:37.961Z,100272.28
2022-07-31T17:09:16.868Z,100271.05
2022-07-31T17:11:48.868Z,100274.48
2022-07-31T17:14:18.791Z,100271.73
2022-07-31T17:16:49.422Z,100270.16
2022-07-31T17:19:36.197Z,100271.39
2022-07-31T17:22:11.813Z,100268.14
2022-07-31T17:24:51.278Z,100267.67
2022-07-31T17:27:21.118Z,100266.38
2022-07-31T17:29:49.457Z,100264.69
2022-07-31T17:32:18.106Z,100260.66
2022-07-31T17:34:48.163Z,100259.52
2022-07-31T17:37:19.606Z,100261.96
2022-07-31T17:39:48.235Z,100260.92
2022-07-31T17:42:18.183Z,100258.07
2022-07-31T17:44:55.901Z,100257.12
2022-07-31T17:47:26.058Z,100256.58
2022-07-31T17:49:54.702Z,100257.41
2022-07-31T17:52:23.650Z,100253.51
2022-07-31T17:54:52.539Z,100254.24
2022-07-31T17:57:22.911Z,100254.67
2022-07-31T17:59:52.456Z,100251.52
2022-07-31T18:02:20.927Z,100254.64
2022-07-31T18:04:49.471Z,100254.30
2022-07-31T18:07:19.783Z,100252.86
2022-07-31T18:09:48.212Z,100251.05
2022-07-31T18:12:16.890Z,100254.40
2022-07-31T18:14:48.395Z,100253.69
2022-07-31T18:17:16.989Z,100256.67
2022-07-31T18:19:46.485Z,100256.23
2022-07-31T18:22:15.262Z,100255.90
2022-07-31T18:24:43.662Z,100253.25
2022-07-31T18:27:12.123Z,100254.95
2022-07-31T18:29:40.859Z,100260.72
2022-07-31T18:32:09.426Z,100256.70
2022-07-31T18:34:37.820Z,100262.94
2022-07-31T18:37:06.372Z,100256.38
2022-07-31T18:39:34.561Z,100254.42
2022-07-31T18:42:18.154Z,100258.85
2022-07-31T18:44:47.424Z,100256.52
2022-07-31T18:47:15.694Z,100256.66
2022-07-31T18:51:01.467Z,100257.20
2022-07-31T18:52:32.700Z,100258.56
2022-07-31T18:55:01.469Z,100256.06
2022-07-31T18:57:30.702Z,100256.70
2022-07-31T18:59:58.899Z,100255.95
2022-07-31T19:02:28.550Z,100258.73
2022-07-31T19:04:57.263Z,100259.43
2022-07-31T19:07:27.605Z,100259.02
2022-07-31T19:09:56.689Z,100258.89
2022-07-31T19:12:25.252Z,100261.52
2022-07-31T19:14:53.761Z,100259.77
2022-07-31T19:17:22.692Z,100258.01
2022-07-31T19:20:01.434Z,100253.13
2022-07-31T19:22:31.325Z,100252.61
2022-07-31T19:24:59.864Z,100251.95
2022-07-31T19:27:48.540Z,100252.14
2022-07-31T19:30:16.857Z,100254.36
2022-07-31T19:32:45.139Z,100247.52
2022-07-31T19:35:13.329Z,100249.42
2022-07-31T19:37:41.997Z,100250.42
2022-07-31T19:40:10.675Z,100250.22
2022-07-31T19:42:39.703Z,100251.93
2022-07-31T19:45:10.298Z,100251.39
2022-07-31T19:47:38.954Z,100246.45
2022-07-31T19:50:07.825Z,100240.89
2022-07-31T19:52:36.455Z,100239.62
2022-07-31T19:55:06.601Z,100235.64
2022-07-31T19:57:38.341Z,100234.56
2022-07-31T20:00:09.353Z,100228.64
2022-07-31T20:02:38.564Z,100226.11
2022-07-31T20:05:10.708Z,100226.08
2022-07-31T20:07:38.956Z,100223.88
2022-07-31T20:10:10.263Z,100221.67
2022-07-31T20:12:39.885Z,100220.89
2022-07-31T20:15:11.689Z,100213.52
2022-07-31T20:17:40.617Z,100208.06
2022-07-31T20:20:15.682Z,100208.21
2022-07-31T20:22:44.717Z,100208.09
2022-07-31T20:25:20.341Z,100206.60
2022-07-31T20:27:50.722Z,100207.86
2022-07-31T20:30:22.050Z,100202.67
2022-07-31T20:32:54.248Z,100203.09
2022-07-31T20:35:31.157Z,100200.33
2022-07-31T20:38:15.646Z,100198.45
2022-07-31T20:40:48.279Z,100196.38
2022-07-31T20:43:25.496Z,100194.45
2022-07-31T20:45:57.574Z,100187.48
2022-07-31T20:48:35.124Z,100188.55
2022-07-31T20:51:05.083Z,100181.60
2022-07-31T20:53:33.326Z,100182.69
2022-07-31T20:56:01.631Z,100178.59
2022-07-31T20:58:29.925Z,100176.71
2022-07-31T21:00:58.512Z,100177.75
2022-07-31T21:03:27.092Z,100184.55
2022-07-31T21:05:55.339Z,100183.30
2022-07-31T21:08:23.534Z,100183.71
2022-07-31T21:10:51.969Z,100189.48
2022-07-31T21:13:20.177Z,100179.50
2022-07-31T21:15:48.549Z,100177.17
2022-07-31T21:18:19.219Z,100173.77
2022-07-31T21:20:51.040Z,100172.11
2022-07-31T21:23:22.701Z,100169.92
2022-07-31T21:25:52.932Z,100165.50
2022-07-31T21:28:22.467Z,100166.57
2022-07-31T21:30:53.810Z,100164.76
2022-07-31T21:33:23.758Z,100164.04
2022-07-31T21:35:53.197Z,100159.11
2022-07-31T21:38:22.032Z,100157.83
2022-07-31T21:40:50.722Z,100156.94
2022-07-31T21:43:22.807Z,100156.77
2022-07-31T21:45:57.460Z,100153.42
2022-07-31T21:48:32.003Z,100150.95
2022-07-31T21:51:01.143Z,100157.08
2022-07-31T21:53:29.439Z,100153.41
2022-07-31T21:56:02.173Z,100149.31
2022-07-31T21:58:30.393Z,100148.20
2022-07-31T22:00:58.709Z,100150.58
2022-07-31T22:03:27.250Z,100149.98
2022-07-31T22:06:14.632Z,100143.49
2022-07-31T22:08:43.609Z,100137.14
2022-07-31T22:11:12.333Z,100143.02
2022-07-31T22:13:40.610Z,100139.70
2022-07-31T22:16:09.526Z,100136.19
2022-07-31T22:18:38.164Z,100135.27
2022-07-31T22:21:08.505Z,100135.95
2022-07-31T22:23:37.316Z,100132.89
2022-07-31T22:26:05.957Z,100132.08
2022-07-31T22:28:34.991Z,100131.00
2022-07-31T22:31:03.434Z,100128.02
2022-07-31T22:33:31.776Z,100132.88
2022-07-31T22:36:02.727Z,100132.27
2022-07-31T22:38:31.388Z,100131.41
2022-07-31T22:41:00.694Z,100130.61
2022-07-31T22:44:10.831Z,100127.20
2022-07-31T22:46:18.422Z,100118.73
2022-07-31T22:48:47.153Z,100118.92
2022-07-31T22:51:15.889Z,100118.70
2022-07-31T22:53:44.543Z,100118.39
2022-07-31T22:56:18.429Z,100115.62
2022-07-31T22:58:46.851Z,100113.56
2022-07-31T23:01:15.047Z,100113.17
2022-07-31T23:03:43.300Z,100109.39
2022-07-31T23:06:30.749Z,100109.70
2022-07-31T23:09:01.815Z,100112.73
2022-07-31T23:11:30.585Z,100108.94
2022-07-31T23:13:58.951Z,100104.79
2022-07-31T23:16:27.433Z,100105.63
2022-07-31T23:18:56.130Z,100103.75
2022-07-31T23:21:24.919Z,100099.25
2022-07-31T23:23:53.584Z,100094.63
2022-07-31T23:26:24.425Z,100092.99
2022-07-31T23:28:54.955Z,100092.63
2022-07-31T23:31:24.475Z,100091.60
2022-07-31T23:33:53.599Z,100093.95
2022-07-31T23:36:22.282Z,100098.10
2022-07-31T23:38:50.642Z,100102.17
2022-07-31T23:41:37.962Z,100099.98
2022-07-31T23:44:06.607Z,100097.09
2022-07-31T23:46:40.279Z,100098.23
2022-07-31T23:49:09.769Z,100098.87
2022-07-31T23:51:38.991Z,100101.13
2022-07-31T23:54:08.174Z,100093.95
2022-07-31T23:56:36.853Z,100100.31
2022-07-31T23:59:05.190Z,100100.00
